createdAt,value
2023-03-26T00:04:08.025Z,2.33
2023-03-26T00:06:39.415Z,2.35
2023-03-26T00:09:08.393Z,2.17
2023-03-26T00:11:35.918Z,2.40
2023-03-26T00:14:05.625Z,2.33
2023-03-26T00:16:33.781Z,2.60
2023-03-26T00:19:02.082Z,2.40
2023-03-26T00:21:30.352Z,2.60
2023-03-26T00:23:59.767Z,2.65
2023-03-26T00:26:27.296Z,2.50
2023-03-26T00:28:54.692Z,2.65
2023-03-26T00:31:24.074Z,2.60
2023-03-26T00:33:54.359Z,2.47
2023-03-26T00:36:22.637Z,2.63
2023-03-26T00:38:49.783Z,2.73
2023-03-26T00:41:22.715Z,2.85
2023-03-26T00:43:51.532Z,2.72
2023-03-26T00:46:19.044Z,3.00
2023-03-26T00:48:47.678Z,2.90
2023-03-26T00:51:17.465Z,2.83
2023-03-26T00:53:45.866Z,3.00
2023-03-26T00:56:14.104Z,3.28
2023-03-26T00:58:41.781Z,3.37
2023-03-26T01:01:13.922Z,3.22
2023-03-26T01:03:53.204Z,3.30
2023-03-26T01:06:28.156Z,3.90
2023-03-26T01:09:00.308Z,3.08
2023-03-26T01:11:32.057Z,3.05
2023-03-26T01:14:01.507Z,3.05
2023-03-26T01:16:34.200Z,3.42
2023-03-26T01:19:01.192Z,3.03
2023-03-26T01:21:30.498Z,3.45
2023-03-26T01:26:54.064Z,3.58
2023-03-26T01:29:29.860Z,3.25
2023-03-26T01:32:03.698Z,3.30
2023-03-26T01:34:49.706Z,3.80
2023-03-26T01:37:24.876Z,3.80
2023-03-26T01:39:57.218Z,3.58
2023-03-26T01:42:33.975Z,3.28
2023-03-26T01:45:07.293Z,3.80
2023-03-26T01:47:36.551Z,3.53
2023-03-26T01:52:31.659Z,3.00
2023-03-26T01:55:00.441Z,3.08
2023-03-26T02:00:16.437Z,3.20
2023-03-26T02:03:05.910Z,3.40
2023-03-26T02:05:38.964Z,3.40
2023-03-26T02:08:16.620Z,3.28
2023-03-26T02:10:47.467Z,3.22
2023-03-26T02:13:19.066Z,3.17
2023-03-26T02:15:55.790Z,3.03
2023-03-26T02:18:24.281Z,3.42
2023-03-26T02:20:53.089Z,3.75
2023-03-26T02:25:48.921Z,3.70
2023-03-26T02:28:17.007Z,4.30
2023-03-26T02:30:45.942Z,4.05
2023-03-26T02:33:15.376Z,3.95
2023-03-26T02:35:45.870Z,3.58
2023-03-26T02:38:14.543Z,3.25
2023-03-26T02:40:41.756Z,3.20
2023-03-26T02:43:10.533Z,4.07
2023-03-26T02:45:37.696Z,3.65
2023-03-26T02:48:05.490Z,3.25
2023-03-26T02:50:36.819Z,3.85
2023-03-26T02:53:04.075Z,3.50
2023-03-26T02:55:31.247Z,3.28
2023-03-26T02:57:58.443Z,4.10
2023-03-26T03:00:27.133Z,2.97
2023-03-26T03:02:57.884Z,2.80
2023-03-26T03:05:28.576Z,2.78
2023-03-26T03:07:58.076Z,2.83
2023-03-26T03:10:25.599Z,3.10
2023-03-26T03:12:53.635Z,2.80
2023-03-26T03:15:20.496Z,2.58
2023-03-26T03:17:49.191Z,2.90
2023-03-26T03:20:16.907Z,2.47
2023-03-26T03:22:44.583Z,3.10
2023-03-26T03:25:17.525Z,3.13
2023-03-26T03:27:44.913Z,2.65
2023-03-26T03:30:13.951Z,3.30
2023-03-26T03:32:41.802Z,3.47
2023-03-26T03:35:10.822Z,3.55
2023-03-26T03:40:07.710Z,3.72
2023-03-26T03:42:35.380Z,3.42
2023-03-26T03:45:02.422Z,3.03
2023-03-26T03:47:29.859Z,3.28
2023-03-26T03:49:57.058Z,2.80
2023-03-26T03:52:25.641Z,3.03
2023-03-26T03:54:52.656Z,3.00
2023-03-26T03:57:21.969Z,2.58
2023-03-26T04:02:34.737Z,2.60
2023-03-26T04:05:02.581Z,2.47
2023-03-26T04:07:32.321Z,2.67
2023-03-26T04:10:00.185Z,2.80
2023-03-26T04:12:28.170Z,2.53
2023-03-26T04:14:55.695Z,2.67
2023-03-26T04:17:23.159Z,3.10
2023-03-26T04:19:52.901Z,2.63
2023-03-26T04:22:21.554Z,2.95
2023-03-26T04:24:50.241Z,2.90
2023-03-26T04:27:31.573Z,2.80
2023-03-26T04:30:01.135Z,2.70
2023-03-26T04:32:30.870Z,3.33
2023-03-26T04:35:03.167Z,2.88
2023-03-26T04:37:39.607Z,3.03
2023-03-26T04:40:13.729Z,3.17
2023-03-26T04:42:47.118Z,3.75
2023-03-26T04:45:15.685Z,3.78
2023-03-26T04:50:11.653Z,3.53
2023-03-26T04:52:39.262Z,3.28
2023-03-26T04:55:19.563Z,3.25
2023-03-26T04:57:53.765Z,3.30
2023-03-26T05:00:21.431Z,2.83
2023-03-26T05:02:54.902Z,3.13
2023-03-26T05:05:24.193Z,2.65
2023-03-26T05:07:51.791Z,3.17
2023-03-26T05:10:21.820Z,3.10
2023-03-26T05:12:49.497Z,2.95
2023-03-26T05:15:16.704Z,2.60
2023-03-26T05:17:44.073Z,2.65
2023-03-26T05:20:23.291Z,2.55
2023-03-26T05:22:51.359Z,2.40
2023-03-26T05:25:20.440Z,2.65
2023-03-26T05:27:48.049Z,2.88
2023-03-26T05:30:17.019Z,3.05
2023-03-26T05:32:45.049Z,2.78
2023-03-26T05:35:12.999Z,2.78
2023-03-26T05:37:40.191Z,2.90
2023-03-26T05:40:16.660Z,2.85
2023-03-26T05:42:46.089Z,2.60
2023-03-26T05:47:41.466Z,2.90
2023-03-26T05:50:09.991Z,2.45
2023-03-26T05:52:37.942Z,2.90
2023-03-26T05:55:05.656Z,2.92
2023-03-26T05:57:33.740Z,2.90
2023-03-26T06:00:03.193Z,2.80
2023-03-26T06:02:30.780Z,2.75
2023-03-26T06:04:57.858Z,3.20
2023-03-26T06:07:27.073Z,2.90
2023-03-26T06:09:56.482Z,3.08
2023-03-26T06:12:26.736Z,3.00
2023-03-26T06:14:53.692Z,2.70
2023-03-26T06:17:22.431Z,2.83
2023-03-26T06:19:49.393Z,2.58
2023-03-26T06:22:16.737Z,2.72
2023-03-26T06:24:43.765Z,2.90
2023-03-26T06:27:11.020Z,2.85
2023-03-26T06:29:37.980Z,2.88
2023-03-26T06:32:18.480Z,3.08
2023-03-26T06:34:48.366Z,2.17
2023-03-26T06:37:15.731Z,2.88
2023-03-26T06:39:42.925Z,2.67
2023-03-26T06:42:10.407Z,2.47
2023-03-26T06:44:37.723Z,3.30
2023-03-26T06:47:05.415Z,2.70
2023-03-26T06:49:32.439Z,2.50
2023-03-26T06:52:02.888Z,2.42
2023-03-26T06:54:30.368Z,2.80
2023-03-26T06:57:00.135Z,2.60
2023-03-26T06:59:27.376Z,6.03
2023-03-26T07:01:54.624Z,2.72
2023-03-26T07:04:21.614Z,2.50
2023-03-26T07:06:49.748Z,2.28
2023-03-26T07:09:18.345Z,2.45
2023-03-26T07:11:45.639Z,2.30
2023-03-26T07:14:17.827Z,2.67
2023-03-26T07:17:00.396Z,2.30
2023-03-26T07:22:22.448Z,2.28
2023-03-26T07:24:51.774Z,2.92
2023-03-26T07:27:37.716Z,2.08
2023-03-26T07:30:09.116Z,1.77
2023-03-26T07:32:45.317Z,2.10
2023-03-26T07:35:20.850Z,2.10
2023-03-26T07:37:59.659Z,1.70
2023-03-26T07:40:53.149Z,1.50
2023-03-26T07:43:33.777Z,1.67
2023-03-26T07:46:01.290Z,1.63
2023-03-26T07:48:40.798Z,1.63
2023-03-26T07:51:09.113Z,1.77
2023-03-26T07:53:37.426Z,1.45
2023-03-26T07:56:14.373Z,2.07
2023-03-26T07:58:56.532Z,1.92
2023-03-26T08:01:36.387Z,1.90
2023-03-26T08:04:24.653Z,1.80
2023-03-26T08:06:58.608Z,1.60
2023-03-26T08:09:35.201Z,1.40
2023-03-26T08:12:10.596Z,1.45
2023-03-26T08:14:51.274Z,1.60
2023-03-26T08:17:31.027Z,1.60
2023-03-26T08:20:08.048Z,1.40
2023-03-26T08:22:38.884Z,1.45
2023-03-26T08:25:21.331Z,1.25
2023-03-26T08:28:04.301Z,1.13
2023-03-26T08:30:32.529Z,2.00
2023-03-26T08:33:04.676Z,1.55
2023-03-26T08:35:35.242Z,1.50
2023-03-26T08:38:02.360Z,1.40
2023-03-26T08:40:57.508Z,1.35
2023-03-26T08:44:02.682Z,1.30
2023-03-26T08:47:06.332Z,1.70
2023-03-26T08:50:09.277Z,0.90
2023-03-26T08:53:27.929Z,1.30
2023-03-26T08:56:01.443Z,0.90
2023-03-26T08:58:58.853Z,1.00
2023-03-26T09:02:18.595Z,0.88
2023-03-26T09:05:20.016Z,1.10
2023-03-26T09:08:37.465Z,1.15
2023-03-26T09:12:01.425Z,0.77
2023-03-26T09:14:57.673Z,1.30
2023-03-26T09:17:53.718Z,0.93
2023-03-26T09:20:51.609Z,1.10
2023-03-26T09:23:41.281Z,0.80
2023-03-26T09:26:23.884Z,0.95
2023-03-26T09:29:14.167Z,1.80
2023-03-26T09:32:30.997Z,1.05
2023-03-26T09:35:13.554Z,0.90
2023-03-26T09:37:57.453Z,1.17
2023-03-26T09:40:37.043Z,0.90
2023-03-26T09:43:29.234Z,0.80
2023-03-26T09:46:10.578Z,0.70
2023-03-26T09:49:12.834Z,0.70
2023-03-26T09:51:56.358Z,0.90
2023-03-26T09:54:54.951Z,0.80
2023-03-26T09:57:41.509Z,0.75
2023-03-26T10:00:21.648Z,0.90
2023-03-26T10:03:21.862Z,1.13
2023-03-26T10:06:04.431Z,1.80
2023-03-26T10:08:48.068Z,1.30
2023-03-26T10:11:23.963Z,1.10
2023-03-26T10:13:59.183Z,1.05
2023-03-26T10:16:35.492Z,0.90
2023-03-26T10:19:37.796Z,1.10
2023-03-26T10:22:21.293Z,0.95
2023-03-26T10:25:22.288Z,1.02
2023-03-26T10:27:58.755Z,0.90
2023-03-26T10:30:52.705Z,0.90
2023-03-26T10:33:30.599Z,0.85
2023-03-26T10:36:15.045Z,1.27
2023-03-26T10:42:24.536Z,0.65
2023-03-26T10:45:14.149Z,0.70
2023-03-26T10:48:02.226Z,0.63
2023-03-26T10:50:52.458Z,0.70
2023-03-26T10:53:31.023Z,0.90
2023-03-26T10:56:07.268Z,0.65
2023-03-26T10:58:49.786Z,1.10
2023-03-26T11:01:27.318Z,0.77
2023-03-26T11:03:55.909Z,0.80
2023-03-26T11:06:41.397Z,0.70
2023-03-26T11:09:22.626Z,1.15
2023-03-26T11:11:57.530Z,0.75
2023-03-26T11:14:35.219Z,0.77
2023-03-26T11:17:40.690Z,3.42
2023-03-26T11:20:07.670Z,1.42
2023-03-26T11:22:46.885Z,1.02
2023-03-26T11:25:46.413Z,2.05
2023-03-26T11:28:28.692Z,0.60
2023-03-26T11:31:04.571Z,0.73
2023-03-26T11:33:37.728Z,0.95
2023-03-26T11:36:17.816Z,1.17
2023-03-26T11:38:47.512Z,0.70
2023-03-26T11:41:22.733Z,0.88
2023-03-26T11:43:55.429Z,0.88
2023-03-26T11:46:26.660Z,1.13
2023-03-26T11:48:58.184Z,0.60
2023-03-26T11:51:29.385Z,1.27
2023-03-26T11:53:57.775Z,1.08
2023-03-26T11:56:30.067Z,1.00
2023-03-26T11:59:01.520Z,0.43
2023-03-26T12:01:44.237Z,0.70
2023-03-26T12:04:13.883Z,0.70
2023-03-26T12:06:52.603Z,0.68
2023-03-26T12:09:20.285Z,0.73
2023-03-26T12:11:49.427Z,0.77
2023-03-26T12:14:19.266Z,0.80
2023-03-26T12:17:03.829Z,1.17
2023-03-26T12:19:40.114Z,0.40
2023-03-26T12:22:29.601Z,0.80
2023-03-26T12:25:18.099Z,0.75
2023-03-26T12:27:48.466Z,0.63
2023-03-26T12:30:22.433Z,0.70
2023-03-26T12:32:55.748Z,0.80
2023-03-26T12:35:27.386Z,0.85
2023-03-26T12:37:56.070Z,0.80
2023-03-26T12:40:35.963Z,0.50
2023-03-26T12:44:46.501Z,1.40
2023-03-26T12:47:45.807Z,0.60
2023-03-26T12:48:45.810Z,1.00
2023-03-26T12:51:26.321Z,0.85
2023-03-26T12:54:13.623Z,0.73
2023-03-26T12:56:48.001Z,0.82
2023-03-26T12:59:28.724Z,0.63
2023-03-26T13:02:07.141Z,0.70
2023-03-26T13:07:49.583Z,1.35
2023-03-26T13:10:49.437Z,0.70
2023-03-26T13:13:46.834Z,0.70
2023-03-26T13:16:24.008Z,0.67
2023-03-26T13:18:55.814Z,0.43
2023-03-26T13:21:36.991Z,0.65
2023-03-26T13:24:13.690Z,0.70
2023-03-26T13:27:00.616Z,0.60
2023-03-26T13:29:34.600Z,0.88
2023-03-26T13:32:07.563Z,0.70
2023-03-26T13:34:42.872Z,0.82
2023-03-26T13:37:17.450Z,0.80
2023-03-26T13:39:58.355Z,1.05
2023-03-26T13:42:38.591Z,0.60
2023-03-26T13:45:20.289Z,0.50
2023-03-26T13:47:51.043Z,1.02
2023-03-26T13:50:25.055Z,1.25
2023-03-26T13:52:59.432Z,0.80
2023-03-26T13:55:30.673Z,0.75
2023-03-26T13:58:04.888Z,1.25
2023-03-26T14:00:49.812Z,1.15
2023-03-26T14:03:24.452Z,0.60
2023-03-26T14:05:55.520Z,1.52
2023-03-26T14:08:32.726Z,1.00
2023-03-26T14:11:10.754Z,0.60
2023-03-26T14:13:46.177Z,0.82
2023-03-26T14:16:18.113Z,0.75
2023-03-26T14:18:52.338Z,0.80
2023-03-26T14:21:34.327Z,1.20
2023-03-26T14:24:24.467Z,1.10
2023-03-26T14:27:08.116Z,0.90
2023-03-26T14:29:56.625Z,0.60
2023-03-26T14:32:50.967Z,1.40
2023-03-26T14:35:35.166Z,1.17
2023-03-26T14:38:34.554Z,0.70
2023-03-26T14:41:17.984Z,0.70
2023-03-26T14:44:18.713Z,0.70
2023-03-26T14:46:59.307Z,0.70
2023-03-26T14:49:40.726Z,1.13
2023-03-26T14:52:13.764Z,1.05
2023-03-26T14:54:44.264Z,1.00
2023-03-26T14:57:58.457Z,1.00
2023-03-26T15:00:44.644Z,1.00
2023-03-26T15:03:51.104Z,0.98
2023-03-26T15:06:58.460Z,1.17
2023-03-26T15:10:16.860Z,0.85
2023-03-26T15:13:01.765Z,0.57
2023-03-26T15:15:59.376Z,1.45
2023-03-26T15:18:47.703Z,0.98
2023-03-26T15:24:31.500Z,0.63
2023-03-26T15:27:32.498Z,0.70
2023-03-26T15:30:32.972Z,0.70
2023-03-26T15:33:38.503Z,0.73
2023-03-26T15:36:28.229Z,0.68
2023-03-26T15:39:28.213Z,1.08
2023-03-26T15:42:03.975Z,1.30
2023-03-26T15:44:53.203Z,0.65
2023-03-26T15:47:37.963Z,0.75
2023-03-26T15:50:27.014Z,0.85
2023-03-26T15:53:02.798Z,1.00
2023-03-26T15:55:36.654Z,1.10
2023-03-26T15:58:16.481Z,0.80
2023-03-26T16:00:55.464Z,0.82
2023-03-26T16:03:34.365Z,1.25
2023-03-26T16:06:31.051Z,1.30
2023-03-26T16:09:11.579Z,1.20
2023-03-26T16:11:53.745Z,1.23
2023-03-26T16:14:23.906Z,0.90
2023-03-26T16:16:54.954Z,0.80
2023-03-26T16:19:46.024Z,0.98
2023-03-26T16:22:42.882Z,1.23
2023-03-26T16:25:27.249Z,0.93
2023-03-26T16:28:29.940Z,0.93
2023-03-26T16:31:37.508Z,0.88
2023-03-26T16:34:26.182Z,1.08
2023-03-26T16:36:54.345Z,1.13
2023-03-26T16:39:25.096Z,1.35
2023-03-26T16:42:06.248Z,1.50
2023-03-26T16:44:43.936Z,1.90
2023-03-26T16:47:21.990Z,2.20
2023-03-26T16:50:09.600Z,2.10
2023-03-26T16:52:45.252Z,2.13
2023-03-26T16:55:20.242Z,2.00
2023-03-26T16:57:56.273Z,2.97
2023-03-26T17:00:38.187Z,2.45
2023-03-26T17:03:28.269Z,2.88
2023-03-26T17:06:07.685Z,4.65
2023-03-26T17:08:44.677Z,4.40
2023-03-26T17:11:22.888Z,3.97
2023-03-26T17:14:03.820Z,3.50
2023-03-26T17:16:35.919Z,3.30
2023-03-26T17:19:12.257Z,3.55
2023-03-26T17:21:50.712Z,3.60
2023-03-26T17:24:27.500Z,4.38
2023-03-26T17:27:03.046Z,5.03
2023-03-26T17:29:47.744Z,4.28
2023-03-26T17:32:15.718Z,5.95
2023-03-26T17:34:54.824Z,5.63
2023-03-26T17:37:37.166Z,5.05
2023-03-26T17:40:47.989Z,5.03
2023-03-26T17:43:42.920Z,4.32
2023-03-26T17:46:23.360Z,3.92
2023-03-26T17:48:58.175Z,3.22
2023-03-26T17:51:43.083Z,3.55
2023-03-26T17:54:22.275Z,3.47
2023-03-26T17:56:52.477Z,3.83
2023-03-26T17:59:24.879Z,4.57
2023-03-26T18:01:57.578Z,5.30
2023-03-26T18:04:31.201Z,6.00
2023-03-26T18:07:23.093Z,5.65
2023-03-26T18:10:09.460Z,4.30
2023-03-26T18:12:51.789Z,4.65
2023-03-26T18:15:33.955Z,4.85
2023-03-26T18:18:10.697Z,4.57
2023-03-26T18:20:38.494Z,4.55
2023-03-26T18:23:20.205Z,5.25
2023-03-26T18:25:52.157Z,4.78
2023-03-26T18:28:19.118Z,4.20
2023-03-26T18:30:51.108Z,4.22
2023-03-26T18:33:18.221Z,4.25
2023-03-26T18:35:49.732Z,4.70
2023-03-26T18:38:35.688Z,5.72
2023-03-26T18:41:21.447Z,5.07
2023-03-26T18:43:48.630Z,5.13
2023-03-26T18:46:17.398Z,4.80
2023-03-26T18:48:46.177Z,4.97
2023-03-26T18:51:15.933Z,4.28
2023-03-26T18:53:50.172Z,4.15
2023-03-26T18:56:28.544Z,4.28
2023-03-26T18:58:58.166Z,5.10
2023-03-26T19:01:31.812Z,4.45
2023-03-26T19:04:02.224Z,4.47
2023-03-26T19:06:31.099Z,4.43
2023-03-26T19:08:58.601Z,4.05
2023-03-26T19:11:27.570Z,4.78
2023-03-26T19:14:06.724Z,4.50
2023-03-26T19:16:37.213Z,4.43
2023-03-26T19:19:07.574Z,4.13
2023-03-26T19:21:36.211Z,4.30
2023-03-26T19:24:06.816Z,4.32
2023-03-26T19:26:36.486Z,3.67
2023-03-26T19:29:04.406Z,4.53
2023-03-26T19:31:34.912Z,4.55
2023-03-26T19:34:19.614Z,4.20
2023-03-26T19:36:58.133Z,4.28
2023-03-26T19:39:36.728Z,4.63
2023-03-26T19:42:07.637Z,4.10
2023-03-26T19:44:39.554Z,4.70
2023-03-26T19:47:15.880Z,4.03
2023-03-26T19:49:51.299Z,3.92
2023-03-26T19:52:23.466Z,4.05
2023-03-26T19:55:00.074Z,4.60
2023-03-26T19:57:29.330Z,5.50
2023-03-26T19:59:56.814Z,5.25
2023-03-26T20:02:24.541Z,5.22
2023-03-26T20:04:53.198Z,5.20
2023-03-26T20:07:22.171Z,4.65
2023-03-26T20:10:05.601Z,4.90
2023-03-26T20:12:34.509Z,5.25
2023-03-26T20:15:02.154Z,4.40
2023-03-26T20:17:30.928Z,3.65
2023-03-26T20:19:59.648Z,3.45
2023-03-26T20:22:27.432Z,2.78
2023-03-26T20:24:54.710Z,2.67
2023-03-26T20:27:22.510Z,2.90
2023-03-26T20:29:49.673Z,4.18
2023-03-26T20:32:19.877Z,4.05
2023-03-26T20:34:49.855Z,3.53
2023-03-26T20:37:18.720Z,4.13
2023-03-26T20:39:46.362Z,3.65
2023-03-26T20:42:16.229Z,4.47
2023-03-26T20:44:43.699Z,3.83
2023-03-26T20:47:11.460Z,4.63
2023-03-26T20:49:38.907Z,3.65
2023-03-26T20:52:06.435Z,4.00
2023-03-26T20:54:35.717Z,5.10
2023-03-26T20:57:03.075Z,4.32
2023-03-26T20:59:30.238Z,3.53
2023-03-26T21:01:59.410Z,4.13
2023-03-26T21:04:27.702Z,4.57
2023-03-26T21:07:00.336Z,4.20
2023-03-26T21:09:36.116Z,4.00
2023-03-26T21:12:08.117Z,3.70
2023-03-26T21:14:41.056Z,3.30
2023-03-26T21:17:13.798Z,3.15
2023-03-26T21:19:41.415Z,2.85
2023-03-26T21:22:19.899Z,3.50
2023-03-26T21:25:10.426Z,2.80
2023-03-26T21:27:44.571Z,3.03
2023-03-26T21:30:17.585Z,3.15
2023-03-26T21:32:46.176Z,3.45
2023-03-26T21:35:15.227Z,3.78
2023-03-26T21:37:45.714Z,3.83
2023-03-26T21:40:19.291Z,3.38
2023-03-26T21:42:48.652Z,3.05
2023-03-26T21:47:45.712Z,2.92
2023-03-26T21:50:15.616Z,2.85
2023-03-26T21:52:49.230Z,3.03
2023-03-26T21:55:20.237Z,3.50
2023-03-26T21:58:15.360Z,3.65
2023-03-26T22:00:50.641Z,4.53
2023-03-26T22:03:25.310Z,4.80
2023-03-26T22:05:58.782Z,5.55
2023-03-26T22:08:29.804Z,4.20
2023-03-26T22:10:58.384Z,4.10
2023-03-26T22:13:25.809Z,3.65
2023-03-26T22:15:52.837Z,3.63
2023-03-26T22:18:21.639Z,3.70
2023-03-26T22:20:49.206Z,3.15
2023-03-26T22:23:16.874Z,2.70
2023-03-26T22:25:44.115Z,3.30
2023-03-26T22:28:12.929Z,3.17
2023-03-26T22:30:40.077Z,3.25
2023-03-26T22:33:11.901Z,3.42
2023-03-26T22:35:41.366Z,3.33
2023-03-26T22:38:09.761Z,3.92
2023-03-26T22:40:36.743Z,3.47
2023-03-26T22:43:04.204Z,2.83
2023-03-26T22:45:32.769Z,3.53
2023-03-26T22:50:31.759Z,3.10
2023-03-26T22:52:59.269Z,3.40
2023-03-26T22:55:28.763Z,3.20
2023-03-26T22:57:57.526Z,3.70
2023-03-26T23:00:26.388Z,2.90
2023-03-26T23:03:00.258Z,3.53
2023-03-26T23:05:28.632Z,3.28
2023-03-26T23:07:57.108Z,3.80
2023-03-26T23:10:24.190Z,3.40
2023-03-26T23:12:52.261Z,3.03
2023-03-26T23:15:20.662Z,3.50
2023-03-26T23:17:54.520Z,3.50
2023-03-26T23:20:23.436Z,3.28
2023-03-26T23:22:51.358Z,3.33
2023-03-26T23:25:18.444Z,2.85
2023-03-26T23:27:45.738Z,2.97
2023-03-26T23:30:13.599Z,2.92
2023-03-26T23:32:41.458Z,2.80
2023-03-26T23:35:09.223Z,3.60
2023-03-26T23:37:37.988Z,2.58
2023-03-26T23:40:10.013Z,3.15
2023-03-26T23:42:38.092Z,2.75
2023-03-26T23:45:05.846Z,2.50
2023-03-26T23:47:34.960Z,2.60
2023-03-26T23:50:02.564Z,2.70
2023-03-26T23:52:30.286Z,2.92
2023-03-26T23:55:02.073Z,2.90
2023-03-26T23:57:30.553Z,2.70
2023-03-26T23:59:58.404Z,2.70
